Time;durP1;ratioP1;P1;durP2;ratioP2;P2;SDS_P1;SDS_P2;PMS_P1;PMS_P2;Temp;Humidity;BMP_temperature;BMP_pressure;BME280_temperature;BME280_humidity;BME280_pressure;Samples;Min_cycle;Max_cycle;Signal;HPM_P1;HPM_P2
2022/02/10 00:16:50;;;;;;;28.37;25.93;;;;;;;;;;4958462;28;20627;-83
2022/02/10 00:19:40;;;;;;;25.43;23.57;;;;;;;;;;4974825;28;20494;-82
2022/02/10 00:22:14;;;;;;;26.57;24.70;;;;;;;;;;4973513;28;20451;-83
2022/02/10 00:25:22;;;;;;;26.20;24.40;;;;;;;;;;4974660;28;20464;-82
2022/02/10 00:35:56;;;;;;;25.57;23.77;;;;;;;;;;5033421;28;20884;-82
2022/02/10 00:38:28;;;;;;;26.03;24.03;;;;;;;;;;5033129;28;20440;-82
2022/02/10 00:40:57;;;;;;;27.07;25.07;;;;;;;;;;5033195;28;20457;-82
2022/02/10 00:43:25;;;;;;;26.73;24.47;;;;;;;;;;5033099;28;20778;-82
2022/02/10 00:45:52;;;;;;;25.20;23.20;;;;;;;;;;5048254;28;20497;-81
2022/02/10 00:48:20;;;;;;;25.47;23.67;;;;;;;;;;5095334;28;20412;-82
2022/02/10 00:50:50;;;;;;;26.90;24.50;;;;;;;;;;5095472;28;20446;-82
2022/02/10 00:53:21;;;;;;;25.83;24.03;;;;;;;;;;5094654;28;20585;-82
2022/02/10 00:55:48;;;;;;;26.60;24.70;;;;;;;;;;5095138;28;20485;-82
2022/02/10 00:58:23;;;;;;;25.17;23.33;;;;;;;;;;5095163;28;20412;-81
2022/02/10 01:12:23;;;;;;;27.07;25.00;;;;;;;;;;5094851;28;20511;-81
2022/02/10 01:31:37;;;;;;;25.90;23.80;;;;;;;;;;4998733;28;20402;-81
2022/02/10 01:34:04;;;;;;;25.80;23.80;;;;;;;;;;5012518;28;20834;-82
2022/02/10 01:36:32;;;;;;;24.90;23.30;;;;;;;;;;5012465;28;20851;-82
2022/02/10 01:38:59;;;;;;;25.43;23.63;;;;;;;;;;5012438;28;20415;-81
2022/02/10 01:42:03;;;;;;;25.60;23.70;;;;;;;;;;4995720;28;20479;-82
2022/02/10 01:58:37;;;;;;;24.73;22.90;;;;;;;;;;5032098;28;20432;-81
2022/02/10 02:03:52;;;;;;;23.37;21.73;;;;;;;;;;5031623;28;20423;-80
2022/02/10 02:06:24;;;;;;;25.43;23.57;;;;;;;;;;5031726;28;20832;-82
2022/02/10 02:08:51;;;;;;;26.37;24.00;;;;;;;;;;5031637;28;20419;-80
2022/02/10 02:11:19;;;;;;;25.47;23.67;;;;;;;;;;5031515;28;20482;-81
2022/02/10 02:13:46;;;;;;;25.17;23.47;;;;;;;;;;5031334;28;20552;-82
2022/02/10 02:16:13;;;;;;;26.20;24.20;;;;;;;;;;5031481;28;20467;-82
2022/02/10 02:18:41;;;;;;;25.33;23.53;;;;;;;;;;5031469;28;20419;-81
2022/02/10 02:21:11;;;;;;;25.70;23.90;;;;;;;;;;5031291;28;20490;-81
2022/02/10 02:23:40;;;;;;;26.20;23.87;;;;;;;;;;5031367;28;20459;-81
2022/02/10 02:26:12;;;;;;;25.63;23.83;;;;;;;;;;5042127;28;20524;-83
2022/02/10 02:28:44;;;;;;;25.37;23.57;;;;;;;;;;5073408;28;20810;-83
2022/02/10 02:31:17;;;;;;;26.50;24.60;;;;;;;;;;5073503;28;20413;-83
2022/02/10 02:39:49;;;;;;;27.37;25.27;;;;;;;;;;5011372;28;20903;-83
2022/02/10 03:04:46;;;;;;;24.80;23.13;;;;;;;;;;5011302;28;20447;-83
2022/02/10 03:07:25;;;;;;;24.93;23.23;;;;;;;;;;5011270;28;20448;-83
2022/02/10 03:10:06;;;;;;;25.20;23.47;;;;;;;;;;5011309;28;20420;-83
2022/02/10 03:12:36;;;;;;;25.20;23.40;;;;;;;;;;5016833;28;20513;-83
2022/02/10 03:15:06;;;;;;;25.60;23.50;;;;;;;;;;5071505;28;20543;-83
2022/02/10 03:20:29;;;;;;;24.20;22.60;;;;;;;;;;5078574;28;20463;-83
2022/02/10 04:02:19;;;;;;;27.70;25.80;;;;;;;;;;5096516;28;20573;-83
2022/02/10 04:05:13;;;;;;;30.87;28.30;;;;;;;;;;5096217;28;20829;-83
2022/02/10 04:07:55;;;;;;;29.47;27.17;;;;;;;;;;5095611;28;20899;-83
2022/02/10 04:10:49;;;;;;;29.40;27.10;;;;;;;;;;5096082;28;20908;-83
2022/02/10 04:13:24;;;;;;;30.30;28.07;;;;;;;;;;5095959;28;20400;-83
2022/02/10 04:16:00;;;;;;;31.93;29.30;;;;;;;;;;5095750;28;20443;-83
2022/02/10 04:19:20;;;;;;;28.38;26.20;;;;;;;;;;5096136;28;20814;-83
2022/02/10 04:21:49;;;;;;;29.70;27.10;;;;;;;;;;5095231;28;20227;-83
2022/02/10 04:24:33;;;;;;;27.35;25.08;;;;;;;;;;5095770;28;20997;-82
2022/02/10 04:27:12;;;;;;;29.50;26.80;;;;;;;;;;5095946;28;20229;-82
2022/02/10 04:30:13;;;;;;;28.40;26.20;;;;;;;;;;5095699;28;20923;-83
2022/02/10 04:38:47;;;;;;;28.00;25.90;;;;;;;;;;5095593;28;20481;-83
2022/02/10 05:01:04;;;;;;;27.97;25.83;;;;;;;;;;5093294;28;20424;-81
2022/02/10 05:17:59;;;;;;;30.20;27.58;;;;;;;;;;5060121;28;20448;-82
2022/02/10 05:20:50;;;;;;;30.40;27.60;;;;;;;;;;5094468;28;20308;-82
2022/02/10 05:34:36;;;;;;;30.83;28.05;;;;;;;;;;5012024;28;20423;-82
2022/02/10 05:37:05;;;;;;;31.90;29.30;;;;;;;;;;5012387;28;20254;-82
2022/02/10 05:39:36;;;;;;;30.97;28.27;;;;;;;;;;4995914;28;20452;-83
2022/02/10 05:42:28;;;;;;;30.93;28.20;;;;;;;;;;5012238;28;20817;-83
2022/02/10 05:45:05;;;;;;;33.03;30.37;;;;;;;;;;5012090;28;20462;-82
2022/02/10 05:53:47;;;;;;;30.67;28.33;;;;;;;;;;5012191;28;20438;-82
2022/02/10 05:56:19;;;;;;;29.70;27.25;;;;;;;;;;5012013;28;20464;-82
2022/02/10 06:51:20;;;;;;;32.83;29.93;;;;;;;;;;5009195;28;20212;-82
2022/02/10 06:53:58;;;;;;;29.67;27.33;;;;;;;;;;5011186;28;20568;-82
2022/02/10 07:05:29;;;;;;;30.60;28.02;;;;;;;;;;5095210;28;20391;-92
2022/02/10 07:17:07;;;;;;;29.48;27.08;;;;;;;;;;5059498;28;20484;-94
2022/02/10 07:47:48;;;;;;;30.00;27.63;;;;;;;;;;5028759;28;20972;-96
2022/02/10 07:50:38;;;;;;;30.63;27.92;;;;;;;;;;5056408;28;20479;-96
2022/02/10 07:59:02;;;;;;;30.70;27.90;;;;;;;;;;5035605;28;20406;-89
2022/02/10 08:56:48;;;;;;;39.90;35.30;;;;;;;;;;4975213;28;20530;-87
2022/02/10 09:05:01;;;;;;;40.87;36.47;;;;;;;;;;4936498;29;20208;-88
2022/02/10 09:10:37;;;;;;;44.83;36.53;;;;;;;;;;4937905;28;20498;-88
2022/02/10 09:13:23;;;;;;;44.73;38.60;;;;;;;;;;4992386;28;20432;-88
2022/02/10 09:57:47;;;;;;;38.00;34.47;;;;;;;;;;5052495;28;20478;-87
2022/02/10 10:00:26;;;;;;;32.43;29.73;;;;;;;;;;5052603;28;20418;-86
2022/02/10 10:03:09;;;;;;;40.33;36.40;;;;;;;;;;5052467;28;20425;-86
2022/02/10 10:05:41;;;;;;;39.50;35.47;;;;;;;;;;5052709;28;20414;-87
2022/02/10 10:08:21;;;;;;;36.97;33.60;;;;;;;;;;5052409;28;20428;-86
2022/02/10 10:11:18;;;;;;;41.47;37.27;;;;;;;;;;5052261;28;20439;-86
2022/02/10 10:14:07;;;;;;;44.42;40.15;;;;;;;;;;5052255;28;20503;-87
2022/02/10 10:19:54;;;;;;;46.43;41.33;;;;;;;;;;5093729;28;20490;-89
2022/02/10 10:22:43;;;;;;;47.80;41.70;;;;;;;;;;5094108;28;20936;-84
2022/02/10 10:25:46;;;;;;;46.30;41.63;;;;;;;;;;5094033;28;20448;-82
2022/02/10 10:51:04;;;;;;;44.30;39.93;;;;;;;;;;5067459;28;20414;-81
2022/02/10 10:53:40;;;;;;;42.00;37.72;;;;;;;;;;5092734;28;20409;-81
2022/02/10 10:56:11;;;;;;;49.47;40.23;;;;;;;;;;5074615;28;20272;-78
2022/02/10 10:58:59;;;;;;;45.83;41.20;;;;;;;;;;5093100;28;20611;-82
2022/02/10 11:38:01;;;;;;;22.48;21.08;;;;;;;;;;5081280;28;20471;-83
2022/02/10 11:40:30;;;;;;;22.53;20.93;;;;;;;;;;5096136;28;20211;-83
2022/02/10 11:43:24;;;;;;;23.20;21.70;;;;;;;;;;5096170;28;20423;-81
2022/02/10 11:46:27;;;;;;;25.67;24.00;;;;;;;;;;5096340;28;20766;-81
2022/02/10 14:15:23;;;;;;;20.40;19.10;;;;;;;;;;5017109;28;20417;-81
2022/02/10 14:18:04;;;;;;;21.43;20.00;;;;;;;;;;5029613;28;20494;-82
2022/02/10 14:20:49;;;;;;;20.92;19.65;;;;;;;;;;5031410;28;20458;-86
2022/02/10 14:25:38;;;;;;;20.80;19.50;;;;;;;;;;5031378;28;20225;-85
2022/02/10 14:26:16;;;;;;;21.27;20.00;;;;;;;;;;5032230;28;20427;-78
2022/02/10 14:28:43;;;;;;;21.63;20.20;;;;;;;;;;5018091;28;20506;-83
2022/02/10 14:31:11;;;;;;;22.30;20.80;;;;;;;;;;5031648;28;20763;-82
2022/02/10 14:33:40;;;;;;;21.17;19.90;;;;;;;;;;5015473;28;20450;-81
2022/02/10 14:36:12;;;;;;;21.85;20.15;;;;;;;;;;5031825;28;20968;-82
2022/02/10 14:38:49;;;;;;;21.53;20.20;;;;;;;;;;5031451;28;20201;-80
2022/02/10 15:45:56;;;;;;;20.97;19.37;;;;;;;;;;5113635;28;20403;-84
2022/02/10 16:13:32;;;;;;;23.03;21.33;;;;;;;;;;5085192;28;20286;-83
2022/02/10 16:18:29;;;;;;;21.90;20.50;;;;;;;;;;5114372;28;20457;-76
2022/02/10 16:21:00;;;;;;;22.27;20.50;;;;;;;;;;5115514;28;20466;-77
2022/02/10 16:23:30;;;;;;;21.97;20.37;;;;;;;;;;5115738;28;20944;-76
2022/02/10 16:26:10;;;;;;;22.83;21.40;;;;;;;;;;5115486;28;20447;-77
2022/02/10 16:28:40;;;;;;;20.13;19.03;;;;;;;;;;5115207;28;20210;-77
2022/02/10 16:31:10;;;;;;;23.53;21.80;;;;;;;;;;5115529;28;20418;-77
2022/02/10 16:33:38;;;;;;;21.80;20.30;;;;;;;;;;5115731;28;20535;-77
2022/02/10 16:36:06;;;;;;;22.93;21.10;;;;;;;;;;5115617;28;20437;-76
2022/02/10 16:38:34;;;;;;;22.70;21.20;;;;;;;;;;5115254;28;20479;-77
2022/02/10 16:41:01;;;;;;;22.73;21.13;;;;;;;;;;5115181;28;20424;-77
2022/02/10 16:43:29;;;;;;;23.27;21.42;;;;;;;;;;5115424;28;20440;-76
2022/02/10 16:45:56;;;;;;;23.23;21.13;;;;;;;;;;5115038;28;20220;-77
2022/02/10 16:48:25;;;;;;;24.00;22.23;;;;;;;;;;5115106;28;20628;-78
2022/02/10 16:50:52;;;;;;;24.15;22.42;;;;;;;;;;5115134;28;20948;-77
2022/02/10 16:53:24;;;;;;;22.83;21.33;;;;;;;;;;5115019;28;21007;-78
2022/02/10 16:55:58;;;;;;;24.30;22.60;;;;;;;;;;5115377;28;20441;-78
2022/02/10 16:58:32;;;;;;;22.97;21.03;;;;;;;;;;5115099;28;20222;-79
2022/02/10 17:01:27;;;;;;;24.20;22.30;;;;;;;;;;5115017;28;20452;-78
2022/02/10 17:17:58;;;;;;;24.15;22.08;;;;;;;;;;5114668;28;21017;-78
2022/02/10 17:20:43;;;;;;;22.95;21.33;;;;;;;;;;5114367;28;20276;-77
2022/02/10 17:26:06;;;;;;;22.48;20.92;;;;;;;;;;5114564;28;21051;-76
2022/02/10 17:28:35;;;;;;;21.30;19.90;;;;;;;;;;5114695;28;20221;-78
2022/02/10 17:31:24;;;;;;;24.38;22.38;;;;;;;;;;5096060;28;20198;-77
2022/02/10 17:34:12;;;;;;;23.45;21.77;;;;;;;;;;5114626;28;20187;-78
2022/02/10 17:36:50;;;;;;;27.67;25.77;;;;;;;;;;5114277;28;20227;-78
2022/02/10 17:42:25;;;;;;;31.13;29.05;;;;;;;;;;5114171;28;20544;-78
2022/02/10 17:44:57;;;;;;;38.35;35.63;;;;;;;;;;5114123;28;20183;-78
2022/02/10 17:53:04;;;;;;;26.05;23.38;;;;;;;;;;5035716;28;20204;-78
2022/02/10 17:55:32;;;;;;;25.65;23.75;;;;;;;;;;5034161;28;20208;-78
2022/02/10 17:57:59;;;;;;;27.08;24.85;;;;;;;;;;5033279;28;20283;-78
2022/02/10 18:00:27;;;;;;;27.88;25.65;;;;;;;;;;5032712;28;20698;-77
2022/02/10 18:02:59;;;;;;;26.90;24.70;;;;;;;;;;5030130;28;20447;-77
2022/02/10 18:08:15;;;;;;;29.25;27.05;;;;;;;;;;5032927;28;20510;-78
2022/02/10 18:13:42;;;;;;;29.02;26.15;;;;;;;;;;4944016;28;20651;-78
2022/02/10 18:16:16;;;;;;;27.48;25.30;;;;;;;;;;4955584;28;20692;-78
2022/02/10 18:18:50;;;;;;;28.23;25.88;;;;;;;;;;4957662;28;20231;-78
2022/02/10 18:21:33;;;;;;;29.35;27.08;;;;;;;;;;4957691;28;20309;-78
2022/02/10 18:24:19;;;;;;;28.75;26.75;;;;;;;;;;4955927;28;20824;-78
2022/02/10 18:27:01;;;;;;;30.27;27.10;;;;;;;;;;4981886;28;20218;-79
2022/02/10 18:29:47;;;;;;;29.92;27.65;;;;;;;;;;5015629;28;20732;-78
2022/02/10 19:01:31;;;;;;;28.45;25.10;;;;;;;;;;5096384;28;20202;-79
2022/02/10 19:08:27;;;;;;;29.33;26.90;;;;;;;;;;5015949;28;20271;-79
2022/02/10 19:10:58;;;;;;;30.05;27.60;;;;;;;;;;5017591;28;20576;-80
2022/02/10 19:13:28;;;;;;;28.75;26.15;;;;;;;;;;5017873;28;20213;-79
2022/02/10 19:15:57;;;;;;;26.80;24.90;;;;;;;;;;5017753;28;20209;-80
2022/02/10 19:18:24;;;;;;;26.70;24.75;;;;;;;;;;5016657;28;20226;-81
2022/02/10 19:20:51;;;;;;;27.95;25.35;;;;;;;;;;5018329;28;20300;-80
2022/02/10 19:23:19;;;;;;;28.35;26.00;;;;;;;;;;5017149;28;20244;-81
2022/02/10 19:25:46;;;;;;;30.05;27.15;;;;;;;;;;5016986;28;20206;-80
2022/02/10 19:28:13;;;;;;;26.48;24.45;;;;;;;;;;5018961;28;20216;-81
2022/02/10 19:30:44;;;;;;;27.90;25.25;;;;;;;;;;5019608;28;20240;-81
2022/02/10 19:33:14;;;;;;;25.40;23.20;;;;;;;;;;5021069;28;20209;-81
2022/02/10 19:35:44;;;;;;;24.20;21.83;;;;;;;;;;5021378;28;20874;-81
2022/02/10 19:38:16;;;;;;;23.48;21.67;;;;;;;;;;5006989;28;20228;-80
2022/02/10 19:40:46;;;;;;;22.52;20.90;;;;;;;;;;5027579;28;20215;-81
2022/02/10 19:43:14;;;;;;;23.42;21.60;;;;;;;;;;5061312;28;20564;-83
2022/02/10 19:45:43;;;;;;;23.95;22.08;;;;;;;;;;5061942;28;20589;-77
2022/02/10 19:48:11;;;;;;;24.23;22.17;;;;;;;;;;5063854;28;20211;-82
2022/02/10 19:50:38;;;;;;;25.30;23.15;;;;;;;;;;5061539;28;20267;-79
2022/02/10 19:53:09;;;;;;;23.77;21.83;;;;;;;;;;5063763;28;20230;-81
2022/02/10 19:55:39;;;;;;;24.50;22.60;;;;;;;;;;5059531;28;20206;-84
2022/02/10 19:58:09;;;;;;;25.13;23.40;;;;;;;;;;5060319;28;20539;-81
2022/02/10 20:00:41;;;;;;;25.42;23.27;;;;;;;;;;5062703;28;20460;-81
2022/02/10 20:03:14;;;;;;;27.30;24.98;;;;;;;;;;5061927;28;20213;-80
2022/02/10 20:05:45;;;;;;;25.80;23.55;;;;;;;;;;5059631;28;20204;-81
2022/02/10 20:08:13;;;;;;;25.42;23.20;;;;;;;;;;5060877;28;20254;-80
2022/02/10 20:10:41;;;;;;;26.00;23.80;;;;;;;;;;5060099;28;20204;-82
2022/02/10 20:13:09;;;;;;;24.30;22.42;;;;;;;;;;5062448;28;20200;-81
2022/02/10 20:15:36;;;;;;;25.75;23.70;;;;;;;;;;5059360;28;20650;-82
2022/02/10 20:18:05;;;;;;;24.65;22.75;;;;;;;;;;5062477;28;20231;-83
2022/02/10 20:20:35;;;;;;;26.65;24.40;;;;;;;;;;5075560;28;20242;-80
2022/02/10 20:23:03;;;;;;;25.10;23.05;;;;;;;;;;5099752;28;20218;-79
2022/02/10 20:25:32;;;;;;;25.98;23.48;;;;;;;;;;5100305;28;20252;-79
2022/02/10 20:28:01;;;;;;;25.63;23.33;;;;;;;;;;5099007;28;20226;-80
2022/02/10 20:30:31;;;;;;;24.77;22.98;;;;;;;;;;5099400;28;20263;-79
2022/02/10 20:32:59;;;;;;;23.25;21.60;;;;;;;;;;5082661;28;20286;-79
2022/02/10 20:35:27;;;;;;;22.63;21.23;;;;;;;;;;5100689;28;20560;-78
2022/02/10 20:38:00;;;;;;;23.95;22.23;;;;;;;;;;5099280;28;20255;-79
2022/02/10 20:40:29;;;;;;;23.77;21.95;;;;;;;;;;5099274;28;20245;-79
2022/02/10 20:43:03;;;;;;;23.25;21.60;;;;;;;;;;5098308;28;20205;-78
2022/02/10 20:45:32;;;;;;;26.40;24.40;;;;;;;;;;5100500;28;20210;-80
2022/02/10 20:48:00;;;;;;;23.90;22.20;;;;;;;;;;5102076;28;20203;-80
2022/02/10 20:50:27;;;;;;;25.90;23.75;;;;;;;;;;5100678;28;20206;-81
2022/02/10 20:52:57;;;;;;;24.02;22.38;;;;;;;;;;5101077;28;20289;-79
2022/02/10 20:55:25;;;;;;;23.48;21.77;;;;;;;;;;5098540;28;20640;-81
2022/02/10 20:57:52;;;;;;;23.05;21.15;;;;;;;;;;5099989;28;20202;-81
2022/02/10 21:00:23;;;;;;;23.48;21.92;;;;;;;;;;5101284;28;20218;-80
2022/02/10 21:02:50;;;;;;;22.80;21.30;;;;;;;;;;5098567;28;20241;-81
2022/02/10 21:05:36;;;;;;;23.73;21.67;;;;;;;;;;5099174;28;20207;-81
2022/02/10 21:08:11;;;;;;;21.90;20.53;;;;;;;;;;5098790;28;20298;-80
2022/02/10 21:10:40;;;;;;;20.80;19.58;;;;;;;;;;5099963;28;20445;-80
2022/02/10 21:13:10;;;;;;;21.85;20.55;;;;;;;;;;5094943;28;20587;-80
2022/02/10 21:15:42;;;;;;;22.30;20.85;;;;;;;;;;5094684;28;20552;-81
2022/02/10 21:18:11;;;;;;;21.73;20.30;;;;;;;;;;5094755;28;20215;-80
2022/02/10 21:20:38;;;;;;;22.00;20.55;;;;;;;;;;5094315;28;20235;-81
2022/02/10 21:23:16;;;;;;;21.60;20.23;;;;;;;;;;5094331;28;20697;-80
2022/02/10 21:25:44;;;;;;;21.38;19.88;;;;;;;;;;5094506;28;20188;-80
2022/02/10 21:28:19;;;;;;;24.42;22.52;;;;;;;;;;5094620;28;20227;-81
2022/02/10 21:30:49;;;;;;;22.20;20.70;;;;;;;;;;5094574;28;20213;-81
2022/02/10 21:33:23;;;;;;;21.92;20.55;;;;;;;;;;5094500;28;20245;-81
2022/02/10 21:38:37;;;;;;;21.90;20.65;;;;;;;;;;5091151;28;20244;-82
2022/02/10 21:55:22;;;;;;;22.25;20.67;;;;;;;;;;5051378;28;20266;-81
2022/02/10 22:01:26;;;;;;;22.13;20.80;;;;;;;;;;5049960;28;20205;-81
2022/02/10 22:03:48;;;;;;;23.25;21.55;;;;;;;;;;5051031;28;20417;-81
2022/02/10 22:12:06;;;;;;;23.02;21.35;;;;;;;;;;5050918;28;20193;-81
2022/02/10 22:20:19;;;;;;;23.60;21.92;;;;;;;;;;5034372;28;20243;-84
2022/02/10 22:23:01;;;;;;;23.23;21.83;;;;;;;;;;5051728;28;20307;-83
2022/02/10 22:25:29;;;;;;;23.50;21.80;;;;;;;;;;5051842;28;20193;-79
2022/02/10 22:28:06;;;;;;;24.13;22.15;;;;;;;;;;5051832;28;20224;-83
2022/02/10 22:30:45;;;;;;;23.58;21.90;;;;;;;;;;5051780;28;20192;-82
2022/02/10 22:33:24;;;;;;;23.67;21.90;;;;;;;;;;5034744;28;20196;-82
2022/02/10 22:35:51;;;;;;;24.75;22.58;;;;;;;;;;5051565;28;20499;-82
2022/02/10 22:38:22;;;;;;;24.10;22.50;;;;;;;;;;5051464;28;20192;-82
2022/02/10 22:41:01;;;;;;;24.95;23.25;;;;;;;;;;5051481;28;20300;-82
2022/02/10 22:43:32;;;;;;;23.87;22.10;;;;;;;;;;5051363;28;20613;-82
2022/02/10 22:45:59;;;;;;;23.75;22.05;;;;;;;;;;5051371;28;20840;-82
2022/02/10 22:48:27;;;;;;;24.30;22.60;;;;;;;;;;5051370;28;20254;-84
2022/02/10 22:50:54;;;;;;;24.95;22.80;;;;;;;;;;5034943;28;20406;-82
2022/02/10 22:53:22;;;;;;;26.13;24.00;;;;;;;;;;5056042;28;20551;-82
2022/02/10 22:55:49;;;;;;;26.35;24.40;;;;;;;;;;5114081;28;20502;-82
2022/02/10 22:58:17;;;;;;;26.30;24.25;;;;;;;;;;5096285;28;20191;-82
2022/02/10 23:00:47;;;;;;;26.02;23.90;;;;;;;;;;5113803;28;20187;-83
2022/02/10 23:03:18;;;;;;;25.15;23.10;;;;;;;;;;5117218;28;20183;-84
2022/02/10 23:05:45;;;;;;;26.75;24.25;;;;;;;;;;5118150;28;20216;-82
2022/02/10 23:08:13;;;;;;;24.98;22.85;;;;;;;;;;5117996;28;20186;-83
2022/02/10 23:10:44;;;;;;;26.58;24.67;;;;;;;;;;5118284;28;20198;-83
2022/02/10 23:13:13;;;;;;;27.50;25.20;;;;;;;;;;5118141;28;20187;-83
2022/02/10 23:15:40;;;;;;;27.55;24.67;;;;;;;;;;5118434;28;20464;-83
2022/02/10 23:18:10;;;;;;;27.90;25.60;;;;;;;;;;5118299;28;20201;-82
2022/02/10 23:20:37;;;;;;;28.25;25.67;;;;;;;;;;5117917;28;20234;-82
2022/02/10 23:23:07;;;;;;;27.33;25.15;;;;;;;;;;5117995;28;20595;-83
2022/02/10 23:25:35;;;;;;;27.88;25.48;;;;;;;;;;5117945;28;20189;-83
2022/02/10 23:28:02;;;;;;;28.27;25.75;;;;;;;;;;5117782;28;20191;-83
2022/02/10 23:30:29;;;;;;;26.67;24.38;;;;;;;;;;5118108;28;20195;-83
2022/02/10 23:33:03;;;;;;;27.27;24.75;;;;;;;;;;5117639;28;20191;-82
2022/02/10 23:36:25;;;;;;;28.17;25.50;;;;;;;;;;5118012;28;20224;-83
2022/02/10 23:38:45;;;;;;;28.67;26.48;;;;;;;;;;5117413;28;20209;-83
2022/02/10 23:43:53;;;;;;;27.60;25.08;;;;;;;;;;5114320;28;20200;-83
2022/02/10 23:46:21;;;;;;;27.13;24.92;;;;;;;;;;5116734;28;20195;-83
2022/02/10 23:48:49;;;;;;;26.92;24.77;;;;;;;;;;5117316;28;20195;-83
2022/02/10 23:51:18;;;;;;;26.35;24.05;;;;;;;;;;5117394;28;20216;-82
2022/02/10 23:53:46;;;;;;;26.65;24.48;;;;;;;;;;5099300;28;20201;-82
2022/02/10 23:56:16;;;;;;;26.30;24.33;;;;;;;;;;5117974;28;20183;-83
2022/02/10 23:58:53;;;;;;;26.63;24.23;;;;;;;;;;5118903;28;20527;-83
